sensor_id;sensor_type;location;lat;lon;timestamp;temperature;humidity
36132;DHT22;22185;48.738;9.324;2023-04-25T00:01:24;9.20;99.90
36132;DHT22;22185;48.738;9.324;2023-04-25T00:03:26;9.10;99.90
36132;DHT22;22185;48.738;9.324;2023-04-25T00:05:28;9.00;99.90
36132;DHT22;22185;48.738;9.324;2023-04-25T00:07:31;9.00;99.90
36132;DHT22;22185;48.738;9.324;2023-04-25T00:09:33;9.00;99.90
36132;DHT22;22185;48.738;9.324;2023-04-25T00:11:35;9.00;99.90
36132;DHT22;22185;48.738;9.324;2023-04-25T00:13:38;9.10;99.90
36132;DHT22;22185;48.738;9.324;2023-04-25T00:15:43;9.10;99.90
36132;DHT22;22185;48.738;9.324;2023-04-25T00:17:45;9.10;99.90
36132;DHT22;22185;48.738;9.324;2023-04-25T00:19:47;9.10;99.90
36132;DHT22;22185;48.738;9.324;2023-04-25T00:21:49;9.20;99.90
36132;DHT22;22185;48.738;9.324;2023-04-25T00:23:55;9.10;99.90
36132;DHT22;22185;48.738;9.324;2023-04-25T00:25:56;9.00;99.90
36132;DHT22;22185;48.738;9.324;2023-04-25T00:27:58;9.10;99.90
36132;DHT22;22185;48.738;9.324;2023-04-25T00:30:00;9.10;99.90
36132;DHT22;22185;48.738;9.324;2023-04-25T00:32:01;9.00;99.90
36132;DHT22;22185;48.738;9.324;2023-04-25T00:34:03;9.00;99.90
36132;DHT22;22185;48.738;9.324;2023-04-25T00:36:05;9.00;99.90
36132;DHT22;22185;48.738;9.324;2023-04-25T00:38:07;9.00;99.90
36132;DHT22;22185;48.738;9.324;2023-04-25T00:40:09;9.00;99.90
36132;DHT22;22185;48.738;9.324;2023-04-25T00:42:11;9.00;99.90
36132;DHT22;22185;48.738;9.324;2023-04-25T00:44:13;9.00;99.90
36132;DHT22;22185;48.738;9.324;2023-04-25T00:46:18;8.90;99.90
36132;DHT22;22185;48.738;9.324;2023-04-25T00:48:21;9.00;99.90
36132;DHT22;22185;48.738;9.324;2023-04-25T00:50:23;9.00;99.90
36132;DHT22;22185;48.738;9.324;2023-04-25T00:52:25;9.00;99.90
36132;DHT22;22185;48.738;9.324;2023-04-25T00:54:27;9.00;99.90
36132;DHT22;22185;48.738;9.324;2023-04-25T00:56:29;9.00;99.90
36132;DHT22;22185;48.738;9.324;2023-04-25T00:58:31;9.00;99.90
36132;DHT22;22185;48.738;9.324;2023-04-25T01:00:32;9.00;99.90
36132;DHT22;22185;48.738;9.324;2023-04-25T01:02:34;9.00;99.90
36132;DHT22;22185;48.738;9.324;2023-04-25T01:04:37;9.00;99.90
36132;DHT22;22185;48.738;9.324;2023-04-25T01:06:39;9.10;99.90
36132;DHT22;22185;48.738;9.324;2023-04-25T01:08:41;9.00;99.90
36132;DHT22;22185;48.738;9.324;2023-04-25T01:10:43;9.10;99.90
36132;DHT22;22185;48.738;9.324;2023-04-25T01:12:45;9.10;99.90
36132;DHT22;22185;48.738;9.324;2023-04-25T01:14:47;9.10;99.90
36132;DHT22;22185;48.738;9.324;2023-04-25T01:16:49;9.00;99.90
36132;DHT22;22185;48.738;9.324;2023-04-25T01:18:51;9.00;99.90
36132;DHT22;22185;48.738;9.324;2023-04-25T01:20:53;9.00;99.90
36132;DHT22;22185;48.738;9.324;2023-04-25T01:22:55;9.00;99.90
36132;DHT22;22185;48.738;9.324;2023-04-25T01:24:57;9.10;99.90
36132;DHT22;22185;48.738;9.324;2023-04-25T01:27:00;9.10;99.90
36132;DHT22;22185;48.738;9.324;2023-04-25T01:29:03;9.20;99.90
36132;DHT22;22185;48.738;9.324;2023-04-25T01:31:05;9.10;99.90
36132;DHT22;22185;48.738;9.324;2023-04-25T01:33:07;9.20;99.90
36132;DHT22;22185;48.738;9.324;2023-04-25T01:35:10;9.20;99.90
36132;DHT22;22185;48.738;9.324;2023-04-25T01:37:12;9.20;99.90
36132;DHT22;22185;48.738;9.324;2023-04-25T01:39:14;9.20;99.90
36132;DHT22;22185;48.738;9.324;2023-04-25T01:41:16;9.20;99.90
36132;DHT22;22185;48.738;9.324;2023-04-25T01:43:19;9.20;99.90
36132;DHT22;22185;48.738;9.324;2023-04-25T01:45:21;9.20;99.90
36132;DHT22;22185;48.738;9.324;2023-04-25T01:47:22;9.20;99.90
36132;DHT22;22185;48.738;9.324;2023-04-25T01:49:24;9.20;99.90
36132;DHT22;22185;48.738;9.324;2023-04-25T01:51:26;9.20;99.90
36132;DHT22;22185;48.738;9.324;2023-04-25T01:53:28;9.20;99.90
36132;DHT22;22185;48.738;9.324;2023-04-25T01:55:29;9.20;99.90
36132;DHT22;22185;48.738;9.324;2023-04-25T01:57:31;9.30;99.90
36132;DHT22;22185;48.738;9.324;2023-04-25T01:59:33;9.20;99.90
36132;DHT22;22185;48.738;9.324;2023-04-25T02:01:35;9.10;99.90
36132;DHT22;22185;48.738;9.324;2023-04-25T02:03:37;9.00;99.90
36132;DHT22;22185;48.738;9.324;2023-04-25T02:05:39;8.90;99.90
36132;DHT22;22185;48.738;9.324;2023-04-25T02:07:42;9.00;99.90
36132;DHT22;22185;48.738;9.324;2023-04-25T02:09:43;9.00;99.90
36132;DHT22;22185;48.738;9.324;2023-04-25T02:11:45;9.00;99.90
36132;DHT22;22185;48.738;9.324;2023-04-25T02:13:47;8.90;99.90
36132;DHT22;22185;48.738;9.324;2023-04-25T02:15:49;8.90;99.90
36132;DHT22;22185;48.738;9.324;2023-04-25T02:17:50;8.80;99.90
36132;DHT22;22185;48.738;9.324;2023-04-25T02:19:54;8.80;99.90
36132;DHT22;22185;48.738;9.324;2023-04-25T02:21:55;8.70;99.90
36132;DHT22;22185;48.738;9.324;2023-04-25T02:23:59;8.60;99.90
36132;DHT22;22185;48.738;9.324;2023-04-25T02:26:01;8.60;99.90
36132;DHT22;22185;48.738;9.324;2023-04-25T02:28:03;8.40;99.90
36132;DHT22;22185;48.738;9.324;2023-04-25T02:30:07;8.40;99.90
36132;DHT22;22185;48.738;9.324;2023-04-25T02:32:10;8.40;99.90
36132;DHT22;22185;48.738;9.324;2023-04-25T02:34:12;8.40;99.90
36132;DHT22;22185;48.738;9.324;2023-04-25T02:36:13;8.50;99.90
36132;DHT22;22185;48.738;9.324;2023-04-25T02:38:15;8.50;99.90
36132;DHT22;22185;48.738;9.324;2023-04-25T02:40:17;8.60;99.90
36132;DHT22;22185;48.738;9.324;2023-04-25T02:42:18;8.60;99.90
36132;DHT22;22185;48.738;9.324;2023-04-25T02:44:20;8.50;99.90
36132;DHT22;22185;48.738;9.324;2023-04-25T02:46:22;8.40;99.90
36132;DHT22;22185;48.738;9.324;2023-04-25T02:48:39;8.40;99.90
36132;DHT22;22185;48.738;9.324;2023-04-25T02:50:41;8.40;99.90
36132;DHT22;22185;48.738;9.324;2023-04-25T02:52:44;8.40;99.90
36132;DHT22;22185;48.738;9.324;2023-04-25T02:54:46;8.40;99.90
36132;DHT22;22185;48.738;9.324;2023-04-25T02:56:48;8.30;99.90
36132;DHT22;22185;48.738;9.324;2023-04-25T02:58:50;8.40;99.90
36132;DHT22;22185;48.738;9.324;2023-04-25T03:00:51;8.40;99.90
36132;DHT22;22185;48.738;9.324;2023-04-25T03:02:53;8.30;99.90
36132;DHT22;22185;48.738;9.324;2023-04-25T03:04:55;8.30;99.90
36132;DHT22;22185;48.738;9.324;2023-04-25T03:06:57;8.30;99.90
36132;DHT22;22185;48.738;9.324;2023-04-25T03:08:59;8.30;99.90
36132;DHT22;22185;48.738;9.324;2023-04-25T03:11:01;8.30;99.90
36132;DHT22;22185;48.738;9.324;2023-04-25T03:13:02;8.20;99.90
36132;DHT22;22185;48.738;9.324;2023-04-25T03:15:05;8.20;99.90
36132;DHT22;22185;48.738;9.324;2023-04-25T03:17:07;8.20;99.90
36132;DHT22;22185;48.738;9.324;2023-04-25T03:19:09;8.20;99.90
36132;DHT22;22185;48.738;9.324;2023-04-25T03:21:10;8.30;99.90
36132;DHT22;22185;48.738;9.324;2023-04-25T03:23:12;8.30;99.90
36132;DHT22;22185;48.738;9.324;2023-04-25T03:25:15;8.30;99.90
36132;DHT22;22185;48.738;9.324;2023-04-25T03:27:16;8.30;99.90
36132;DHT22;22185;48.738;9.324;2023-04-25T03:29:18;8.30;99.90
36132;DHT22;22185;48.738;9.324;2023-04-25T03:31:20;8.30;99.90
36132;DHT22;22185;48.738;9.324;2023-04-25T03:33:22;8.30;99.90
36132;DHT22;22185;48.738;9.324;2023-04-25T03:35:23;8.30;99.90
36132;DHT22;22185;48.738;9.324;2023-04-25T03:37:26;8.40;99.90
36132;DHT22;22185;48.738;9.324;2023-04-25T03:39:28;8.30;99.90
36132;DHT22;22185;48.738;9.324;2023-04-25T03:41:29;8.40;99.90
36132;DHT22;22185;48.738;9.324;2023-04-25T03:43:31;8.40;99.90
36132;DHT22;22185;48.738;9.324;2023-04-25T03:45:33;8.30;99.90
36132;DHT22;22185;48.738;9.324;2023-04-25T03:47:34;8.30;99.90
36132;DHT22;22185;48.738;9.324;2023-04-25T03:49:36;8.30;99.90
36132;DHT22;22185;48.738;9.324;2023-04-25T03:51:38;8.40;99.90
36132;DHT22;22185;48.738;9.324;2023-04-25T03:53:40;8.30;99.90
36132;DHT22;22185;48.738;9.324;2023-04-25T03:55:41;8.40;99.90
36132;DHT22;22185;48.738;9.324;2023-04-25T03:57:44;8.40;99.90
36132;DHT22;22185;48.738;9.324;2023-04-25T03:59:45;8.30;99.90
36132;DHT22;22185;48.738;9.324;2023-04-25T04:01:47;8.20;99.90
36132;DHT22;22185;48.738;9.324;2023-04-25T04:03:49;8.10;99.90
36132;DHT22;22185;48.738;9.324;2023-04-25T04:05:51;8.10;99.90
36132;DHT22;22185;48.738;9.324;2023-04-25T04:07:53;8.10;99.90
36132;DHT22;22185;48.738;9.324;2023-04-25T04:09:55;8.10;99.90
36132;DHT22;22185;48.738;9.324;2023-04-25T04:11:56;8.10;99.90
36132;DHT22;22185;48.738;9.324;2023-04-25T04:13:58;8.20;99.90
36132;DHT22;22185;48.738;9.324;2023-04-25T04:16:00;8.20;99.90
36132;DHT22;22185;48.738;9.324;2023-04-25T04:18:01;8.20;99.90
36132;DHT22;22185;48.738;9.324;2023-04-25T04:20:04;8.20;99.90
36132;DHT22;22185;48.738;9.324;2023-04-25T04:22:07;8.20;99.90
36132;DHT22;22185;48.738;9.324;2023-04-25T04:24:09;8.10;99.90
36132;DHT22;22185;48.738;9.324;2023-04-25T04:26:11;8.10;99.90
36132;DHT22;22185;48.738;9.324;2023-04-25T04:28:14;8.10;99.90
36132;DHT22;22185;48.738;9.324;2023-04-25T04:30:17;8.10;99.90
36132;DHT22;22185;48.738;9.324;2023-04-25T04:32:19;8.00;99.90
36132;DHT22;22185;48.738;9.324;2023-04-25T04:34:21;8.10;99.90
36132;DHT22;22185;48.738;9.324;2023-04-25T04:36:22;8.10;99.90
36132;DHT22;22185;48.738;9.324;2023-04-25T04:38:24;8.10;99.90
36132;DHT22;22185;48.738;9.324;2023-04-25T04:40:26;8.20;99.90
36132;DHT22;22185;48.738;9.324;2023-04-25T04:42:28;8.20;99.90
36132;DHT22;22185;48.738;9.324;2023-04-25T04:44:30;8.30;99.90
36132;DHT22;22185;48.738;9.324;2023-04-25T04:46:35;8.40;99.90
36132;DHT22;22185;48.738;9.324;2023-04-25T04:48:44;8.40;99.90
36132;DHT22;22185;48.738;9.324;2023-04-25T04:50:45;8.50;99.90
36132;DHT22;22185;48.738;9.324;2023-04-25T04:52:47;8.50;99.90
36132;DHT22;22185;48.738;9.324;2023-04-25T04:54:49;8.50;99.90
36132;DHT22;22185;48.738;9.324;2023-04-25T04:56:51;8.50;99.90
36132;DHT22;22185;48.738;9.324;2023-04-25T04:58:53;8.50;99.90
36132;DHT22;22185;48.738;9.324;2023-04-25T05:00:55;8.50;99.90
36132;DHT22;22185;48.738;9.324;2023-04-25T05:02:57;8.50;99.90
36132;DHT22;22185;48.738;9.324;2023-04-25T05:04:59;8.60;99.90
36132;DHT22;22185;48.738;9.324;2023-04-25T05:07:01;8.70;99.90
36132;DHT22;22185;48.738;9.324;2023-04-25T05:09:02;8.70;99.90
36132;DHT22;22185;48.738;9.324;2023-04-25T05:11:05;8.80;99.90
36132;DHT22;22185;48.738;9.324;2023-04-25T05:13:06;8.80;99.90
36132;DHT22;22185;48.738;9.324;2023-04-25T05:15:08;8.80;99.90
36132;DHT22;22185;48.738;9.324;2023-04-25T05:17:10;8.80;99.90
36132;DHT22;22185;48.738;9.324;2023-04-25T05:19:12;8.80;99.90
36132;DHT22;22185;48.738;9.324;2023-04-25T05:21:14;8.80;99.90
36132;DHT22;22185;48.738;9.324;2023-04-25T05:23:16;8.80;99.90
36132;DHT22;22185;48.738;9.324;2023-04-25T05:25:19;8.80;99.90
36132;DHT22;22185;48.738;9.324;2023-04-25T05:27:20;8.80;99.90
36132;DHT22;22185;48.738;9.324;2023-04-25T05:29:22;8.90;99.90
36132;DHT22;22185;48.738;9.324;2023-04-25T05:31:24;8.90;99.90
36132;DHT22;22185;48.738;9.324;2023-04-25T05:33:26;9.00;99.90
36132;DHT22;22185;48.738;9.324;2023-04-25T05:35:27;9.10;99.90
36132;DHT22;22185;48.738;9.324;2023-04-25T05:37:30;9.20;99.90
36132;DHT22;22185;48.738;9.324;2023-04-25T05:39:32;9.30;99.90
36132;DHT22;22185;48.738;9.324;2023-04-25T05:41:34;9.20;99.90
36132;DHT22;22185;48.738;9.324;2023-04-25T05:43:35;9.10;99.90
36132;DHT22;22185;48.738;9.324;2023-04-25T05:45:37;9.20;99.90
36132;DHT22;22185;48.738;9.324;2023-04-25T05:47:39;9.20;99.90
36132;DHT22;22185;48.738;9.324;2023-04-25T05:49:41;9.20;99.90
36132;DHT22;22185;48.738;9.324;2023-04-25T05:51:43;9.10;99.90
36132;DHT22;22185;48.738;9.324;2023-04-25T05:53:45;9.20;99.90
36132;DHT22;22185;48.738;9.324;2023-04-25T05:55:47;9.20;99.90
36132;DHT22;22185;48.738;9.324;2023-04-25T05:57:51;9.40;99.90
36132;DHT22;22185;48.738;9.324;2023-04-25T05:59:53;9.50;99.90
36132;DHT22;22185;48.738;9.324;2023-04-25T06:01:55;9.70;99.90
36132;DHT22;22185;48.738;9.324;2023-04-25T06:03:57;9.60;99.90
36132;DHT22;22185;48.738;9.324;2023-04-25T06:06:00;9.50;99.90
36132;DHT22;22185;48.738;9.324;2023-04-25T06:08:03;9.50;99.90
36132;DHT22;22185;48.738;9.324;2023-04-25T06:10:06;9.60;99.90
36132;DHT22;22185;48.738;9.324;2023-04-25T06:12:08;9.60;99.90
36132;DHT22;22185;48.738;9.324;2023-04-25T06:14:10;9.70;99.90
36132;DHT22;22185;48.738;9.324;2023-04-25T06:16:11;9.70;99.90
36132;DHT22;22185;48.738;9.324;2023-04-25T06:18:16;9.70;99.90
36132;DHT22;22185;48.738;9.324;2023-04-25T06:20:17;9.60;99.90
36132;DHT22;22185;48.738;9.324;2023-04-25T06:22:19;9.50;99.90
36132;DHT22;22185;48.738;9.324;2023-04-25T06:24:21;9.50;99.90
36132;DHT22;22185;48.738;9.324;2023-04-25T06:26:23;9.50;99.90
36132;DHT22;22185;48.738;9.324;2023-04-25T06:28:25;9.60;99.90
36132;DHT22;22185;48.738;9.324;2023-04-25T06:30:27;9.60;99.90
36132;DHT22;22185;48.738;9.324;2023-04-25T06:32:29;9.50;99.90
36132;DHT22;22185;48.738;9.324;2023-04-25T06:34:31;9.60;99.90
36132;DHT22;22185;48.738;9.324;2023-04-25T06:36:39;9.60;99.90
36132;DHT22;22185;48.738;9.324;2023-04-25T06:38:43;9.70;99.90
36132;DHT22;22185;48.738;9.324;2023-04-25T06:40:44;9.60;99.90
36132;DHT22;22185;48.738;9.324;2023-04-25T06:42:47;9.70;99.90
36132;DHT22;22185;48.738;9.324;2023-04-25T06:44:49;9.80;99.90
36132;DHT22;22185;48.738;9.324;2023-04-25T06:46:50;9.70;99.90
36132;DHT22;22185;48.738;9.324;2023-04-25T06:48:52;9.60;99.90
36132;DHT22;22185;48.738;9.324;2023-04-25T06:50:54;9.70;99.90
36132;DHT22;22185;48.738;9.324;2023-04-25T06:52:56;9.50;99.90
36132;DHT22;22185;48.738;9.324;2023-04-25T06:54:58;9.40;99.90
36132;DHT22;22185;48.738;9.324;2023-04-25T06:57:00;9.50;99.90
36132;DHT22;22185;48.738;9.324;2023-04-25T06:59:02;9.50;99.90
36132;DHT22;22185;48.738;9.324;2023-04-25T07:01:05;9.50;99.90
36132;DHT22;22185;48.738;9.324;2023-04-25T07:03:07;9.50;99.90
36132;DHT22;22185;48.738;9.324;2023-04-25T07:05:10;9.50;99.90
36132;DHT22;22185;48.738;9.324;2023-04-25T07:07:12;9.50;99.90
36132;DHT22;22185;48.738;9.324;2023-04-25T07:09:13;9.50;99.90
36132;DHT22;22185;48.738;9.324;2023-04-25T07:11:15;9.60;99.90
36132;DHT22;22185;48.738;9.324;2023-04-25T07:13:19;9.50;99.90
36132;DHT22;22185;48.738;9.324;2023-04-25T07:15:21;9.50;99.90
36132;DHT22;22185;48.738;9.324;2023-04-25T07:17:24;9.50;99.90
36132;DHT22;22185;48.738;9.324;2023-04-25T07:19:39;9.50;99.90
36132;DHT22;22185;48.738;9.324;2023-04-25T07:21:51;9.40;99.90
36132;DHT22;22185;48.738;9.324;2023-04-25T07:23:55;9.50;99.90
36132;DHT22;22185;48.738;9.324;2023-04-25T07:26:03;9.60;99.90
36132;DHT22;22185;48.738;9.324;2023-04-25T07:28:05;9.40;99.90
36132;DHT22;22185;48.738;9.324;2023-04-25T07:30:12;9.30;99.90
36132;DHT22;22185;48.738;9.324;2023-04-25T07:32:20;9.20;99.90
36132;DHT22;22185;48.738;9.324;2023-04-25T07:34:24;9.20;99.90
36132;DHT22;22185;48.738;9.324;2023-04-25T07:36:40;9.20;99.90
36132;DHT22;22185;48.738;9.324;2023-04-25T07:39:05;9.20;99.90
36132;DHT22;22185;48.738;9.324;2023-04-25T07:41:23;9.10;99.90
36132;DHT22;22185;48.738;9.324;2023-04-25T07:43:27;9.10;99.90
36132;DHT22;22185;48.738;9.324;2023-04-25T07:45:29;9.10;99.90
36132;DHT22;22185;48.738;9.324;2023-04-25T07:47:31;9.10;99.90
36132;DHT22;22185;48.738;9.324;2023-04-25T07:49:35;9.00;99.90
36132;DHT22;22185;48.738;9.324;2023-04-25T07:51:37;9.00;99.90
36132;DHT22;22185;48.738;9.324;2023-04-25T07:53:39;9.00;99.90
36132;DHT22;22185;48.738;9.324;2023-04-25T07:55:41;9.00;99.90
36132;DHT22;22185;48.738;9.324;2023-04-25T07:57:46;9.00;99.90
36132;DHT22;22185;48.738;9.324;2023-04-25T07:59:53;9.00;99.90
36132;DHT22;22185;48.738;9.324;2023-04-25T08:01:55;9.00;99.90
36132;DHT22;22185;48.738;9.324;2023-04-25T08:04:12;9.00;99.90
36132;DHT22;22185;48.738;9.324;2023-04-25T08:06:30;8.90;99.90
36132;DHT22;22185;48.738;9.324;2023-04-25T08:08:35;8.90;99.90
36132;DHT22;22185;48.738;9.324;2023-04-25T08:10:38;8.90;99.90
36132;DHT22;22185;48.738;9.324;2023-04-25T08:12:41;8.90;99.90
36132;DHT22;22185;48.738;9.324;2023-04-25T08:14:43;8.90;99.90
36132;DHT22;22185;48.738;9.324;2023-04-25T08:16:45;8.90;99.90
36132;DHT22;22185;48.738;9.324;2023-04-25T08:18:50;8.90;99.90
36132;DHT22;22185;48.738;9.324;2023-04-25T08:20:55;8.90;99.90
36132;DHT22;22185;48.738;9.324;2023-04-25T08:22:59;8.80;99.90
36132;DHT22;22185;48.738;9.324;2023-04-25T08:25:01;8.80;99.90
36132;DHT22;22185;48.738;9.324;2023-04-25T08:27:04;8.80;99.90
36132;DHT22;22185;48.738;9.324;2023-04-25T08:29:09;8.70;99.90
36132;DHT22;22185;48.738;9.324;2023-04-25T08:31:25;8.70;99.90
36132;DHT22;22185;48.738;9.324;2023-04-25T08:33:36;8.70;99.90
36132;DHT22;22185;48.738;9.324;2023-04-25T08:35:38;8.70;99.90
36132;DHT22;22185;48.738;9.324;2023-04-25T08:37:41;8.70;99.90
36132;DHT22;22185;48.738;9.324;2023-04-25T08:40:07;8.60;99.90
36132;DHT22;22185;48.738;9.324;2023-04-25T08:42:13;8.60;99.90
36132;DHT22;22185;48.738;9.324;2023-04-25T08:44:16;8.70;99.90
36132;DHT22;22185;48.738;9.324;2023-04-25T08:46:21;8.80;99.90
36132;DHT22;22185;48.738;9.324;2023-04-25T08:48:26;8.80;99.90
36132;DHT22;22185;48.738;9.324;2023-04-25T08:50:28;8.90;99.90
36132;DHT22;22185;48.738;9.324;2023-04-25T08:52:35;8.80;99.90
36132;DHT22;22185;48.738;9.324;2023-04-25T08:54:37;8.70;99.90
36132;DHT22;22185;48.738;9.324;2023-04-25T08:56:48;8.80;99.90
36132;DHT22;22185;48.738;9.324;2023-04-25T08:58:52;8.70;99.90
36132;DHT22;22185;48.738;9.324;2023-04-25T09:00:56;8.60;99.90
36132;DHT22;22185;48.738;9.324;2023-04-25T09:03:02;8.60;99.90
36132;DHT22;22185;48.738;9.324;2023-04-25T09:05:05;8.60;99.90
36132;DHT22;22185;48.738;9.324;2023-04-25T09:07:08;8.50;99.90
36132;DHT22;22185;48.738;9.324;2023-04-25T09:09:11;8.60;99.90
36132;DHT22;22185;48.738;9.324;2023-04-25T09:11:15;8.60;99.90
36132;DHT22;22185;48.738;9.324;2023-04-25T09:13:27;8.70;99.90
36132;DHT22;22185;48.738;9.324;2023-04-25T09:15:47;8.80;99.90
36132;DHT22;22185;48.738;9.324;2023-04-25T09:17:59;8.90;99.90
36132;DHT22;22185;48.738;9.324;2023-04-25T09:20:05;8.80;99.90
36132;DHT22;22185;48.738;9.324;2023-04-25T09:22:07;8.70;99.90
36132;DHT22;22185;48.738;9.324;2023-04-25T09:24:11;8.70;99.90
36132;DHT22;22185;48.738;9.324;2023-04-25T09:26:16;8.70;99.90
36132;DHT22;22185;48.738;9.324;2023-04-25T09:28:27;8.60;99.90
36132;DHT22;22185;48.738;9.324;2023-04-25T09:30:32;8.70;99.90
36132;DHT22;22185;48.738;9.324;2023-04-25T09:32:34;8.80;99.90
36132;DHT22;22185;48.738;9.324;2023-04-25T09:34:40;8.80;99.90
36132;DHT22;22185;48.738;9.324;2023-04-25T09:36:42;8.70;99.90
36132;DHT22;22185;48.738;9.324;2023-04-25T09:38:45;8.60;99.90
36132;DHT22;22185;48.738;9.324;2023-04-25T09:40:48;8.60;99.90
36132;DHT22;22185;48.738;9.324;2023-04-25T09:42:51;8.60;99.90
36132;DHT22;22185;48.738;9.324;2023-04-25T09:44:58;8.60;99.90
36132;DHT22;22185;48.738;9.324;2023-04-25T09:47:00;8.70;99.90
36132;DHT22;22185;48.738;9.324;2023-04-25T09:49:11;8.60;99.90
36132;DHT22;22185;48.738;9.324;2023-04-25T09:51:15;8.50;99.90
36132;DHT22;22185;48.738;9.324;2023-04-25T09:53:18;8.50;99.90
36132;DHT22;22185;48.738;9.324;2023-04-25T09:55:20;8.40;99.90
36132;DHT22;22185;48.738;9.324;2023-04-25T09:57:23;8.50;99.90
36132;DHT22;22185;48.738;9.324;2023-04-25T09:59:25;8.40;99.90
36132;DHT22;22185;48.738;9.324;2023-04-25T10:01:27;8.40;99.90
36132;DHT22;22185;48.738;9.324;2023-04-25T10:03:30;8.60;99.90
36132;DHT22;22185;48.738;9.324;2023-04-25T10:05:34;8.50;99.90
36132;DHT22;22185;48.738;9.324;2023-04-25T10:07:37;8.50;99.90
36132;DHT22;22185;48.738;9.324;2023-04-25T10:09:40;8.40;99.90
36132;DHT22;22185;48.738;9.324;2023-04-25T10:11:42;8.40;99.90
36132;DHT22;22185;48.738;9.324;2023-04-25T10:13:44;8.40;99.90
36132;DHT22;22185;48.738;9.324;2023-04-25T10:15:47;8.40;99.90
36132;DHT22;22185;48.738;9.324;2023-04-25T10:17:49;8.40;99.90
36132;DHT22;22185;48.738;9.324;2023-04-25T10:19:52;8.40;99.90
36132;DHT22;22185;48.738;9.324;2023-04-25T10:22:07;8.50;99.90
36132;DHT22;22185;48.738;9.324;2023-04-25T10:24:10;8.50;99.90
36132;DHT22;22185;48.738;9.324;2023-04-25T10:26:13;8.60;99.90
36132;DHT22;22185;48.738;9.324;2023-04-25T10:28:15;8.60;99.90
36132;DHT22;22185;48.738;9.324;2023-04-25T10:30:17;8.50;99.90
36132;DHT22;22185;48.738;9.324;2023-04-25T10:32:19;8.50;99.90
36132;DHT22;22185;48.738;9.324;2023-04-25T10:34:25;8.40;99.90
36132;DHT22;22185;48.738;9.324;2023-04-25T10:36:38;8.40;99.90
36132;DHT22;22185;48.738;9.324;2023-04-25T10:38:44;8.40;99.90
36132;DHT22;22185;48.738;9.324;2023-04-25T10:41:05;8.40;99.90
36132;DHT22;22185;48.738;9.324;2023-04-25T10:46:59;8.50;99.90
36132;DHT22;22185;48.738;9.324;2023-04-25T10:50:09;8.20;99.90
36132;DHT22;22185;48.738;9.324;2023-04-25T10:54:33;8.50;99.90
36132;DHT22;22185;48.738;9.324;2023-04-25T10:56:48;8.30;99.90
36132;DHT22;22185;48.738;9.324;2023-04-25T10:59:11;8.20;99.90
36132;DHT22;22185;48.738;9.324;2023-04-25T11:01:42;8.10;99.90
36132;DHT22;22185;48.738;9.324;2023-04-25T11:03:57;8.00;99.90
36132;DHT22;22185;48.738;9.324;2023-04-25T11:06:01;8.00;99.90
36132;DHT22;22185;48.738;9.324;2023-04-25T11:08:10;8.20;99.90
36132;DHT22;22185;48.738;9.324;2023-04-25T11:10:27;8.30;99.90
36132;DHT22;22185;48.738;9.324;2023-04-25T11:12:32;8.30;99.90
36132;DHT22;22185;48.738;9.324;2023-04-25T11:14:46;8.50;99.90
36132;DHT22;22185;48.738;9.324;2023-04-25T11:16:59;8.00;99.90
36132;DHT22;22185;48.738;9.324;2023-04-25T11:22:07;7.80;99.90
36132;DHT22;22185;48.738;9.324;2023-04-25T11:24:42;7.90;99.90
36132;DHT22;22185;48.738;9.324;2023-04-25T11:26:56;7.80;99.90
36132;DHT22;22185;48.738;9.324;2023-04-25T11:29:00;7.80;99.90
36132;DHT22;22185;48.738;9.324;2023-04-25T11:31:03;7.80;99.90
36132;DHT22;22185;48.738;9.324;2023-04-25T11:33:14;7.90;99.90
36132;DHT22;22185;48.738;9.324;2023-04-25T11:35:28;7.90;99.90
36132;DHT22;22185;48.738;9.324;2023-04-25T11:37:32;8.10;99.90
36132;DHT22;22185;48.738;9.324;2023-04-25T11:39:47;8.30;99.90
36132;DHT22;22185;48.738;9.324;2023-04-25T11:41:50;8.20;99.90
36132;DHT22;22185;48.738;9.324;2023-04-25T11:43:59;8.40;99.90
36132;DHT22;22185;48.738;9.324;2023-04-25T11:46:06;8.20;99.90
36132;DHT22;22185;48.738;9.324;2023-04-25T11:48:18;8.40;99.90
36132;DHT22;22185;48.738;9.324;2023-04-25T11:50:40;8.30;99.90
36132;DHT22;22185;48.738;9.324;2023-04-25T11:52:47;8.60;99.90
36132;DHT22;22185;48.738;9.324;2023-04-25T11:54:49;8.40;99.90
36132;DHT22;22185;48.738;9.324;2023-04-25T11:56:51;8.50;99.90
36132;DHT22;22185;48.738;9.324;2023-04-25T11:58:53;8.50;99.90
36132;DHT22;22185;48.738;9.324;2023-04-25T12:00:55;8.50;99.90
36132;DHT22;22185;48.738;9.324;2023-04-25T12:03:00;8.40;99.90
36132;DHT22;22185;48.738;9.324;2023-04-25T12:05:11;8.30;99.90
36132;DHT22;22185;48.738;9.324;2023-04-25T12:07:32;8.30;99.90
36132;DHT22;22185;48.738;9.324;2023-04-25T12:09:35;8.50;99.90
36132;DHT22;22185;48.738;9.324;2023-04-25T12:11:43;8.60;99.90
36132;DHT22;22185;48.738;9.324;2023-04-25T12:13:45;8.90;99.90
36132;DHT22;22185;48.738;9.324;2023-04-25T12:16:10;9.00;99.90
36132;DHT22;22185;48.738;9.324;2023-04-25T12:18:12;9.30;99.90
36132;DHT22;22185;48.738;9.324;2023-04-25T12:20:16;8.80;99.90
36132;DHT22;22185;48.738;9.324;2023-04-25T12:22:19;8.80;99.90
36132;DHT22;22185;48.738;9.324;2023-04-25T12:24:23;8.70;99.90
36132;DHT22;22185;48.738;9.324;2023-04-25T12:26:45;8.60;99.90
36132;DHT22;22185;48.738;9.324;2023-04-25T12:28:48;8.80;99.90
36132;DHT22;22185;48.738;9.324;2023-04-25T12:31:00;8.80;99.90
36132;DHT22;22185;48.738;9.324;2023-04-25T12:33:08;8.90;99.90
36132;DHT22;22185;48.738;9.324;2023-04-25T12:35:10;8.80;99.90
36132;DHT22;22185;48.738;9.324;2023-04-25T12:37:23;8.80;99.90
36132;DHT22;22185;48.738;9.324;2023-04-25T12:39:37;9.00;99.90
36132;DHT22;22185;48.738;9.324;2023-04-25T12:42:15;9.00;99.90
36132;DHT22;22185;48.738;9.324;2023-04-25T12:44:45;9.00;99.90
36132;DHT22;22185;48.738;9.324;2023-04-25T12:50:14;8.80;99.90
36132;DHT22;22185;48.738;9.324;2023-04-25T12:53:24;8.70;99.90
36132;DHT22;22185;48.738;9.324;2023-04-25T12:55:59;8.80;99.90
36132;DHT22;22185;48.738;9.324;2023-04-25T12:58:15;8.90;99.90
36132;DHT22;22185;48.738;9.324;2023-04-25T13:00:23;8.80;99.90
36132;DHT22;22185;48.738;9.324;2023-04-25T13:02:26;8.80;99.90
36132;DHT22;22185;48.738;9.324;2023-04-25T13:07:31;8.80;99.90
36132;DHT22;22185;48.738;9.324;2023-04-25T13:09:36;9.10;99.90
36132;DHT22;22185;48.738;9.324;2023-04-25T13:11:41;9.40;99.90
36132;DHT22;22185;48.738;9.324;2023-04-25T13:13:44;9.60;99.90
36132;DHT22;22185;48.738;9.324;2023-04-25T13:15:50;9.50;99.90
36132;DHT22;22185;48.738;9.324;2023-04-25T13:18:00;9.50;99.90
36132;DHT22;22185;48.738;9.324;2023-04-25T13:20:09;9.90;99.90
36132;DHT22;22185;48.738;9.324;2023-04-25T13:22:13;10.40;99.90
36132;DHT22;22185;48.738;9.324;2023-04-25T13:24:29;11.70;99.90
36132;DHT22;22185;48.738;9.324;2023-04-25T13:26:31;11.30;99.90
36132;DHT22;22185;48.738;9.324;2023-04-25T13:29:34;12.10;99.90
36132;DHT22;22185;48.738;9.324;2023-04-25T13:31:42;12.50;99.90
36132;DHT22;22185;48.738;9.324;2023-04-25T13:33:46;13.10;99.90
36132;DHT22;22185;48.738;9.324;2023-04-25T13:35:48;13.20;99.90
36132;DHT22;22185;48.738;9.324;2023-04-25T13:37:58;12.60;99.90